Time;durP1;ratioP1;P1;durP2;ratioP2;P2;SDS_P1;SDS_P2;PMS_P1;PMS_P2;Temp;Humidity;BMP_temperature;BMP_pressure;BME280_temperature;BME280_humidity;BME280_pressure;Samples;Min_cycle;Max_cycle;Signal;HPM_P1;HPM_P2
2022/12/25 00:01:39;;;;;;;15.13;4.43;;;8.50;99.90;;;;;;5071901;28;20631;-57
2022/12/25 00:04:06;;;;;;;13.73;4.57;;;8.50;99.90;;;;;;5071594;28;20210;-55
2022/12/25 00:06:34;;;;;;;14.23;4.50;;;8.60;99.90;;;;;;5071853;28;20264;-56
2022/12/25 00:09:01;;;;;;;15.80;4.20;;;8.60;99.90;;;;;;5071604;28;20289;-56
2022/12/25 00:11:27;;;;;;;13.53;4.37;;;8.70;99.90;;;;;;5071909;28;20269;-56
2022/12/25 00:13:54;;;;;;;11.97;4.17;;;8.70;99.90;;;;;;5071475;28;20233;-58
2022/12/25 00:16:23;;;;;;;15.50;3.87;;;8.70;99.90;;;;;;5071506;28;20212;-54
2022/12/25 00:18:53;;;;;;;16.13;4.27;;;8.70;99.90;;;;;;5071323;28;20272;-59
2022/12/25 00:21:21;;;;;;;14.50;4.00;;;8.70;99.90;;;;;;5071609;28;20241;-52
2022/12/25 00:23:54;;;;;;;12.13;3.30;;;8.70;99.90;;;;;;5071583;28;20694;-59
2022/12/25 00:26:21;;;;;;;14.03;4.00;;;8.70;99.90;;;;;;5066869;28;20198;-56
2022/12/25 00:28:48;;;;;;;7.63;3.53;;;8.70;99.90;;;;;;5059609;28;20221;-52
2022/12/25 00:31:17;;;;;;;10.50;3.43;;;8.70;99.90;;;;;;5051399;28;20279;-54
2022/12/25 00:33:46;;;;;;;17.00;3.93;;;8.70;99.90;;;;;;5051805;28;20255;-51
2022/12/25 00:36:15;;;;;;;8.17;3.77;;;8.70;99.90;;;;;;5051195;28;20740;-57
2022/12/25 00:38:42;;;;;;;13.30;3.93;;;8.70;99.90;;;;;;5051186;28;20225;-54
2022/12/25 00:41:12;;;;;;;7.53;2.90;;;8.70;99.90;;;;;;5051407;28;20611;-56
2022/12/25 00:43:40;;;;;;;14.37;3.50;;;8.70;99.90;;;;;;5051455;28;20200;-56
2022/12/25 00:46:08;;;;;;;11.03;3.67;;;8.70;99.90;;;;;;5051115;28;20217;-57
2022/12/25 00:48:35;;;;;;;14.30;4.20;;;8.70;99.90;;;;;;5051038;28;20250;-57
2022/12/25 00:51:04;;;;;;;13.63;3.33;;;8.70;99.90;;;;;;5051194;28;20757;-57
2022/12/25 00:53:31;;;;;;;15.93;3.93;;;8.60;99.90;;;;;;5051336;28;20224;-58
2022/12/25 00:56:00;;;;;;;11.07;3.30;;;8.60;99.90;;;;;;5052592;28;20209;-57
2022/12/25 00:58:29;;;;;;;12.10;3.17;;;8.60;99.90;;;;;;5062741;28;20220;-59
2022/12/25 01:00:57;;;;;;;11.37;3.30;;;8.60;99.90;;;;;;5071503;28;20216;-57
2022/12/25 01:03:24;;;;;;;11.83;3.83;;;8.60;99.90;;;;;;5071162;28;20261;-56
2022/12/25 01:05:56;;;;;;;15.10;3.50;;;8.70;99.90;;;;;;5071139;28;20257;-59
2022/12/25 01:08:22;;;;;;;10.27;3.50;;;8.70;99.90;;;;;;5071115;28;20723;-57
2022/12/25 01:10:53;;;;;;;10.20;3.53;;;8.70;99.90;;;;;;5071084;28;20705;-54
2022/12/25 01:13:20;;;;;;;11.70;3.10;;;8.70;99.90;;;;;;5071213;28;20233;-52
2022/12/25 01:15:50;;;;;;;6.97;2.83;;;8.80;99.90;;;;;;5071425;28;20211;-51
2022/12/25 01:18:17;;;;;;;10.50;3.37;;;8.80;99.90;;;;;;5074220;28;20232;-58
2022/12/25 01:20:44;;;;;;;6.00;2.63;;;8.80;99.90;;;;;;5074732;28;20205;-55
2022/12/25 01:23:11;;;;;;;6.80;2.87;;;8.90;99.90;;;;;;5074555;28;20265;-56
2022/12/25 01:25:37;;;;;;;12.17;3.13;;;8.90;99.90;;;;;;5074528;28;20204;-58
2022/12/25 01:28:04;;;;;;;9.07;3.10;;;8.80;99.90;;;;;;5063832;28;20274;-55
2022/12/25 01:30:31;;;;;;;9.27;2.80;;;8.80;99.90;;;;;;5054528;28;20204;-57
2022/12/25 01:32:59;;;;;;;10.33;2.77;;;8.80;99.90;;;;;;5054617;28;20259;-55
2022/12/25 01:35:26;;;;;;;8.73;2.73;;;8.80;99.90;;;;;;5054311;28;20232;-57
2022/12/25 01:37:54;;;;;;;8.67;3.33;;;8.80;99.90;;;;;;5054056;28;20229;-55
2022/12/25 01:40:20;;;;;;;10.13;2.80;;;8.90;99.90;;;;;;5054493;28;20748;-56
2022/12/25 01:42:47;;;;;;;6.77;2.77;;;8.90;99.90;;;;;;5054625;28;20207;-54
2022/12/25 01:45:33;;;;;;;8.90;2.83;;;8.90;99.90;;;;;;5054291;28;20206;-57
2022/12/25 01:48:05;;;;;;;9.10;2.93;;;8.90;99.90;;;;;;5053907;28;20647;-57
2022/12/25 01:50:32;;;;;;;9.37;2.97;;;8.90;99.90;;;;;;5053997;28;20922;-54
2022/12/25 01:52:59;;;;;;;10.17;2.80;;;9.00;99.90;;;;;;5054484;28;20209;-57
2022/12/25 01:55:27;;;;;;;6.77;2.77;;;8.90;99.90;;;;;;5054225;28;20287;-59
2022/12/25 01:57:54;;;;;;;7.03;2.47;;;8.90;99.90;;;;;;5062928;28;20226;-57
2022/12/25 02:00:21;;;;;;;9.27;3.13;;;8.90;99.90;;;;;;5074068;28;20213;-57
2022/12/25 02:02:48;;;;;;;8.63;2.87;;;8.90;99.90;;;;;;5073893;28;20255;-57
2022/12/25 02:05:22;;;;;;;5.90;2.90;;;8.90;99.90;;;;;;5073782;28;20721;-53
2022/12/25 02:07:50;;;;;;;15.27;3.07;;;8.90;99.90;;;;;;5073624;28;20224;-58
2022/12/25 02:10:17;;;;;;;6.10;2.43;;;8.90;99.90;;;;;;5073724;28;20219;-59
2022/12/25 02:12:45;;;;;;;5.57;2.47;;;8.90;99.90;;;;;;5073801;28;20207;-52
2022/12/25 02:15:15;;;;;;;7.67;2.23;;;8.90;99.90;;;;;;5073888;28;20253;-55
2022/12/25 02:17:46;;;;;;;9.30;2.20;;;8.90;99.90;;;;;;5074411;28;20216;-55
2022/12/25 02:20:43;;;;;;;6.23;2.10;;;8.90;99.90;;;;;;5074034;28;20224;-58
2022/12/25 02:23:39;;;;;;;10.50;3.90;;;8.90;99.90;;;;;;5073711;28;20205;-56
2022/12/25 02:26:16;;;;;;;9.70;2.70;;;8.80;99.90;;;;;;5071154;28;20208;-56
2022/12/25 02:28:52;;;;;;;4.20;2.60;;;8.90;99.90;;;;;;5060448;28;20228;-57
2022/12/25 02:31:25;;;;;;;7.77;2.57;;;8.90;99.90;;;;;;5053469;28;20295;-57
2022/12/25 02:34:04;;;;;;;4.83;2.43;;;8.90;99.90;;;;;;5053436;28;20232;-59
2022/12/25 02:36:38;;;;;;;10.40;2.77;;;8.90;99.90;;;;;;5053361;28;20209;-55
2022/12/25 02:42:01;;;;;;;6.57;2.60;;;8.90;99.90;;;;;;5053326;28;20229;-57
2022/12/25 03:07:01;;;;;;;5.37;2.13;;;9.10;99.90;;;;;;5052560;28;20594;-57
2022/12/25 03:12:27;;;;;;;7.27;2.20;;;9.10;99.90;;;;;;5052955;28;20200;-54
2022/12/25 03:17:39;;;;;;;8.00;2.57;;;9.10;99.90;;;;;;5052276;28;20860;-55
2022/12/25 03:28:22;;;;;;;6.70;2.70;;;9.00;99.90;;;;;;5053581;28;20266;-54
2022/12/25 03:31:12;;;;;;;3.83;1.93;;;9.00;99.90;;;;;;5052430;28;20263;-58
2022/12/25 03:36:58;;;;;;;5.63;2.50;;;9.00;99.90;;;;;;5052086;28;20336;-49
2022/12/25 04:38:08;;;;;;;7.97;2.63;;;9.00;99.90;;;;;;5051429;28;20227;-56
2022/12/25 04:40:36;;;;;;;5.80;2.27;;;9.00;99.90;;;;;;5051517;28;20266;-54
2022/12/25 04:43:02;;;;;;;6.50;2.80;;;9.00;99.90;;;;;;5051462;28;20205;-55
2022/12/25 04:45:29;;;;;;;11.23;3.50;;;9.10;99.90;;;;;;5051370;28;20208;-56
2022/12/25 04:47:58;;;;;;;7.47;3.00;;;9.10;99.90;;;;;;5051397;28;20225;-56
2022/12/25 04:50:25;;;;;;;6.40;2.60;;;9.10;99.90;;;;;;5051568;28;20263;-57
2022/12/25 04:52:51;;;;;;;6.30;2.50;;;9.10;99.90;;;;;;5054001;28;20204;-55
2022/12/25 04:55:18;;;;;;;8.00;2.50;;;9.10;99.90;;;;;;5055171;28;20224;-55
2022/12/25 04:57:46;;;;;;;7.10;2.27;;;9.10;99.90;;;;;;5062939;28;20749;-55
2022/12/25 05:00:14;;;;;;;4.83;2.03;;;9.10;99.90;;;;;;5055187;28;20206;-59
2022/12/25 05:02:40;;;;;;;6.33;2.43;;;9.10;99.90;;;;;;5055198;28;20206;-54
2022/12/25 05:05:07;;;;;;;7.87;2.17;;;9.10;99.90;;;;;;5055216;28;20236;-52
2022/12/25 05:07:34;;;;;;;6.50;2.80;;;9.10;99.90;;;;;;5054782;28;20224;-52
2022/12/25 05:10:01;;;;;;;5.63;2.10;;;9.00;99.90;;;;;;5054891;28;20263;-58
2022/12/25 05:12:27;;;;;;;10.90;2.60;;;9.00;99.90;;;;;;5054780;28;20205;-52
2022/12/25 05:14:55;;;;;;;7.33;2.70;;;8.90;99.90;;;;;;5054854;28;20229;-53
2022/12/25 05:17:22;;;;;;;4.23;2.23;;;8.90;99.90;;;;;;5054591;28;20741;-56
2022/12/25 05:19:49;;;;;;;5.93;2.20;;;8.90;99.90;;;;;;5054835;28;20215;-55
2022/12/25 05:22:15;;;;;;;4.40;2.40;;;8.80;99.90;;;;;;5054821;28;20209;-59
2022/12/25 05:24:42;;;;;;;5.50;2.40;;;8.90;99.90;;;;;;5054710;28;20202;-54
2022/12/25 05:27:09;;;;;;;8.43;2.50;;;8.90;99.90;;;;;;5062504;28;20201;-56
2022/12/25 05:29:35;;;;;;;6.10;2.57;;;8.90;99.90;;;;;;5069654;28;20228;-56
2022/12/25 05:32:03;;;;;;;6.33;2.17;;;8.90;99.90;;;;;;5074623;28;20232;-59
2022/12/25 05:34:30;;;;;;;10.33;2.37;;;8.80;99.90;;;;;;5074274;28;20702;-55
2022/12/25 05:36:57;;;;;;;8.00;2.90;;;8.80;99.90;;;;;;5074138;28;20628;-53
2022/12/25 05:39:24;;;;;;;11.20;2.70;;;8.80;99.90;;;;;;5074016;28;20232;-55
2022/12/25 05:41:50;;;;;;;8.03;2.83;;;8.70;99.90;;;;;;5056822;28;20267;-51
2022/12/25 05:44:17;;;;;;;9.10;2.77;;;8.70;99.90;;;;;;5054340;28;20248;-52
2022/12/25 05:46:44;;;;;;;5.23;2.73;;;8.70;99.90;;;;;;5054025;28;20204;-53
2022/12/25 05:49:12;;;;;;;9.40;2.97;;;8.80;99.90;;;;;;5054121;28;20220;-56
2022/12/25 05:51:39;;;;;;;6.87;3.10;;;8.80;99.90;;;;;;5054081;28;20255;-55
2022/12/25 05:54:06;;;;;;;8.37;3.20;;;8.80;99.90;;;;;;5054019;28;20208;-54
2022/12/25 05:56:32;;;;;;;6.60;2.40;;;8.80;99.90;;;;;;5060212;28;20215;-57
2022/12/25 05:58:59;;;;;;;7.07;2.47;;;8.80;99.90;;;;;;5065750;28;20277;-57
2022/12/25 06:01:28;;;;;;;6.80;2.53;;;8.80;99.90;;;;;;5073965;28;20241;-57
2022/12/25 06:03:55;;;;;;;7.40;2.73;;;8.80;99.90;;;;;;5073675;28;20211;-57
2022/12/25 06:06:23;;;;;;;7.60;3.00;;;8.90;99.90;;;;;;5073581;28;20208;-59
2022/12/25 06:08:52;;;;;;;8.50;2.40;;;8.90;99.90;;;;;;5073462;28;20256;-59
2022/12/25 06:11:19;;;;;;;4.77;2.43;;;8.80;99.90;;;;;;5073984;28;20208;-58
2022/12/25 06:13:50;;;;;;;9.10;3.50;;;8.80;99.90;;;;;;5073858;28;20212;-53
2022/12/25 06:16:17;;;;;;;6.50;2.40;;;8.80;99.90;;;;;;5073406;28;20320;-57
2022/12/25 06:18:46;;;;;;;9.13;2.70;;;8.70;99.90;;;;;;5073570;28;20598;-58
2022/12/25 06:21:14;;;;;;;10.17;2.43;;;8.70;99.90;;;;;;5073589;28;20212;-56
2022/12/25 06:23:43;;;;;;;10.90;2.50;;;8.80;99.90;;;;;;5073797;28;20212;-56
2022/12/25 06:26:12;;;;;;;9.23;2.80;;;8.80;99.90;;;;;;5070256;28;20259;-53
2022/12/25 06:28:39;;;;;;;7.97;2.37;;;8.80;99.90;;;;;;5061482;28;20232;-59
2022/12/25 06:31:07;;;;;;;12.70;2.67;;;8.80;99.90;;;;;;5053787;28;20236;-56
2022/12/25 06:33:34;;;;;;;7.47;2.30;;;8.80;99.90;;;;;;5053425;28;20299;-60
2022/12/25 06:36:05;;;;;;;6.50;2.30;;;8.80;99.90;;;;;;5053572;28;20282;-55
2022/12/25 06:38:31;;;;;;;6.53;2.23;;;8.80;99.90;;;;;;5053520;28;20232;-54
2022/12/25 06:41:04;;;;;;;8.40;2.30;;;8.80;99.90;;;;;;5053267;28;20216;-55
2022/12/25 06:43:31;;;;;;;7.37;2.10;;;8.90;99.90;;;;;;5053092;28;20206;-60
2022/12/25 06:46:02;;;;;;;5.23;2.40;;;8.90;99.90;;;;;;5052783;28;20210;-56
2022/12/25 06:48:29;;;;;;;7.23;2.70;;;8.90;99.90;;;;;;5053323;28;20240;-55
2022/12/25 06:50:56;;;;;;;7.37;2.07;;;8.80;99.90;;;;;;5053221;28;20201;-57
2022/12/25 06:53:22;;;;;;;9.67;2.80;;;8.80;99.90;;;;;;5053202;28;20299;-58
2022/12/25 06:55:49;;;;;;;11.87;2.93;;;8.80;99.90;;;;;;5053012;28;20225;-53
2022/12/25 06:58:17;;;;;;;7.13;2.50;;;8.70;99.90;;;;;;5064319;28;20293;-60
2022/12/25 07:00:44;;;;;;;6.40;1.97;;;8.70;99.90;;;;;;5072610;28;20255;-60
2022/12/25 07:03:15;;;;;;;8.37;2.13;;;8.70;99.90;;;;;;5072946;28;20242;-56
2022/12/25 07:05:43;;;;;;;5.17;2.07;;;8.60;99.90;;;;;;5072626;28;20257;-53
2022/12/25 07:08:10;;;;;;;9.83;2.60;;;8.60;99.90;;;;;;5072538;28;20597;-56
2022/12/25 07:10:37;;;;;;;5.50;2.50;;;8.70;99.90;;;;;;5072560;28;20216;-54
2022/12/25 07:13:03;;;;;;;6.97;2.27;;;8.70;99.90;;;;;;5072565;28;20204;-58
2022/12/25 07:15:31;;;;;;;6.07;2.40;;;8.70;99.90;;;;;;5071694;28;20229;-59
2022/12/25 07:17:58;;;;;;;5.53;2.40;;;8.70;99.90;;;;;;5072226;28;20235;-59
2022/12/25 07:20:25;;;;;;;9.13;2.70;;;8.70;99.90;;;;;;5072406;28;20212;-58
2022/12/25 07:22:51;;;;;;;4.93;2.30;;;8.70;99.90;;;;;;5072272;28;20751;-55
2022/12/25 07:25:18;;;;;;;8.80;2.40;;;8.70;99.90;;;;;;5072250;28;20626;-57
2022/12/25 07:27:45;;;;;;;9.77;2.63;;;8.70;99.90;;;;;;5063493;28;20272;-55
2022/12/25 07:30:13;;;;;;;9.97;2.50;;;8.70;99.90;;;;;;5032612;28;20210;-58
2022/12/25 07:32:41;;;;;;;7.70;2.27;;;8.70;99.90;;;;;;5032563;28;20209;-54
2022/12/25 07:35:08;;;;;;;10.37;2.50;;;8.70;99.90;;;;;;5032340;28;20286;-58
2022/12/25 07:37:35;;;;;;;4.87;1.73;;;8.70;99.90;;;;;;5032139;28;20209;-55
2022/12/25 07:40:02;;;;;;;5.47;2.40;;;8.70;99.90;;;;;;5032212;28;20209;-57
2022/12/25 07:42:29;;;;;;;6.77;2.63;;;8.70;99.90;;;;;;5032158;28;20207;-58
2022/12/25 07:44:55;;;;;;;7.13;3.00;;;8.70;99.90;;;;;;5031891;28;20210;-56
2022/12/25 07:47:22;;;;;;;6.13;2.33;;;8.70;99.90;;;;;;5032121;28;20584;-51
2022/12/25 07:49:50;;;;;;;6.73;2.80;;;8.70;99.90;;;;;;5032148;28;20735;-57
2022/12/25 07:52:17;;;;;;;6.10;2.23;;;8.70;99.90;;;;;;5032098;28;20224;-58
2022/12/25 07:54:43;;;;;;;5.93;2.33;;;8.70;99.90;;;;;;5032013;28;20217;-55
2022/12/25 07:57:10;;;;;;;7.57;2.43;;;8.80;99.90;;;;;;5051406;28;20201;-51
2022/12/25 07:59:36;;;;;;;7.27;2.40;;;8.80;99.90;;;;;;5067189;28;20292;-52
2022/12/25 08:02:04;;;;;;;9.83;2.67;;;8.80;99.90;;;;;;5072032;28;20273;-53
2022/12/25 08:04:31;;;;;;;7.77;2.10;;;8.90;99.90;;;;;;5071853;28;20258;-56
2022/12/25 08:06:59;;;;;;;10.53;2.80;;;8.90;99.90;;;;;;5071275;28;20682;-53
2022/12/25 08:09:26;;;;;;;8.83;2.53;;;8.90;99.90;;;;;;5071353;28;20723;-50
2022/12/25 08:11:52;;;;;;;4.90;2.30;;;9.00;99.90;;;;;;5071653;28;20664;-52
2022/12/25 08:14:19;;;;;;;6.83;2.30;;;9.00;99.90;;;;;;5071956;28;20929;-53
2022/12/25 08:16:46;;;;;;;11.17;2.43;;;9.00;99.90;;;;;;5071309;28;20788;-59
2022/12/25 08:19:13;;;;;;;6.27;2.00;;;9.00;99.90;;;;;;5071678;28;20776;-53
2022/12/25 08:21:40;;;;;;;7.93;2.20;;;9.00;99.90;;;;;;5071592;28;20654;-55
2022/12/25 08:24:08;;;;;;;9.80;2.57;;;9.00;99.90;;;;;;5071484;28;20201;-56
2022/12/25 08:26:35;;;;;;;7.30;2.33;;;9.10;99.90;;;;;;5065644;28;20229;-55
2022/12/25 08:29:02;;;;;;;5.23;2.20;;;9.10;99.90;;;;;;5063785;28;20861;-56
2022/12/25 08:31:29;;;;;;;8.23;2.50;;;9.10;99.90;;;;;;5055762;28;20213;-58
2022/12/25 08:33:58;;;;;;;4.73;2.47;;;9.10;99.90;;;;;;5055789;28;20205;-54
2022/12/25 08:36:25;;;;;;;7.80;2.60;;;9.10;99.90;;;;;;5055311;28;20225;-56
2022/12/25 08:38:52;;;;;;;8.37;2.13;;;9.20;99.90;;;;;;5055291;28;20228;-54
2022/12/25 08:41:20;;;;;;;6.80;2.57;;;9.20;99.90;;;;;;5055714;28;20208;-52
2022/12/25 08:43:47;;;;;;;9.20;2.83;;;9.20;99.90;;;;;;5055503;28;20629;-57
2022/12/25 08:46:14;;;;;;;4.17;2.60;;;9.30;99.90;;;;;;5055353;28;20205;-55
2022/12/25 08:48:42;;;;;;;9.60;2.53;;;9.30;99.90;;;;;;5055407;28;20286;-56
2022/12/25 08:51:13;;;;;;;7.23;2.93;;;9.40;99.90;;;;;;5055366;28;20209;-57
2022/12/25 08:53:40;;;;;;;7.63;3.13;;;9.40;99.90;;;;;;5055464;28;20206;-57
2022/12/25 08:56:07;;;;;;;6.90;2.90;;;9.40;99.90;;;;;;5057723;28;20232;-60
2022/12/25 08:58:35;;;;;;;9.73;3.30;;;9.40;99.90;;;;;;5066781;28;20228;-58
2022/12/25 09:01:02;;;;;;;10.10;3.27;;;9.40;99.90;;;;;;5075285;28;20204;-57
2022/12/25 09:03:30;;;;;;;6.90;3.30;;;9.40;99.90;;;;;;5075100;28;20208;-56
2022/12/25 09:06:02;;;;;;;5.67;2.77;;;9.40;99.90;;;;;;5074449;28;20209;-57
2022/12/25 09:08:29;;;;;;;6.07;2.70;;;9.40;99.90;;;;;;5075104;28;20596;-60
2022/12/25 09:10:56;;;;;;;4.40;2.37;;;9.40;99.90;;;;;;5074744;28;20641;-55
2022/12/25 09:13:22;;;;;;;9.70;3.00;;;9.40;99.90;;;;;;5075285;28;20238;-54
2022/12/25 09:15:50;;;;;;;4.80;2.93;;;9.50;99.90;;;;;;5074891;28;20220;-58
2022/12/25 09:18:17;;;;;;;10.60;3.85;;;9.50;99.90;;;;;;5073245;28;20415;-58
2022/12/25 09:20:44;;;;;;;9.55;3.65;;;9.60;99.90;;;;;;5073837;28;20927;-58
2022/12/25 09:23:11;;;;;;;9.30;3.47;;;9.70;99.90;;;;;;5073561;28;20467;-57
2022/12/25 09:25:38;;;;;;;10.88;3.72;;;9.70;99.90;;;;;;5073492;28;20849;-57
2022/12/25 09:28:05;;;;;;;5.60;2.70;;;9.80;99.90;;;;;;5063465;28;20621;-57
2022/12/25 09:30:31;;;;;;;8.67;3.00;;;9.80;99.90;;;;;;5054734;28;20228;-58
2022/12/25 09:32:59;;;;;;;6.93;3.13;;;9.60;99.90;;;;;;5054511;28;20213;-56
2022/12/25 09:35:26;;;;;;;5.37;3.30;;;9.60;99.90;;;;;;5054731;28;20210;-59
2022/12/25 09:37:53;;;;;;;8.43;3.20;;;9.60;99.90;;;;;;5053888;28;20226;-57
2022/12/25 09:40:23;;;;;;;6.63;3.07;;;9.50;99.90;;;;;;5054454;28;20719;-59
2022/12/25 09:42:52;;;;;;;6.63;3.50;;;9.50;99.90;;;;;;5053321;28;20486;-60
2022/12/25 09:45:25;;;;;;;6.40;3.80;;;9.50;99.90;;;;;;5052866;28;21118;-58
2022/12/25 09:47:56;;;;;;;7.35;3.85;;;9.50;99.90;;;;;;5053073;28;20481;-58
2022/12/25 09:50:34;;;;;;;9.25;4.07;;;9.50;99.90;;;;;;5053261;28;20462;-60
2022/12/25 09:53:07;;;;;;;6.45;3.80;;;9.50;99.90;;;;;;5052988;28;21010;-57
2022/12/25 09:55:40;;;;;;;8.85;4.10;;;9.50;99.90;;;;;;5052744;28;20457;-55
2022/12/25 09:58:11;;;;;;;7.63;4.22;;;9.60;99.90;;;;;;5063787;28;20536;-56
2022/12/25 10:00:42;;;;;;;8.75;4.20;;;9.60;99.90;;;;;;5072817;28;20816;-60
2022/12/25 10:03:29;;;;;;;8.02;4.55;;;9.70;99.90;;;;;;5072670;28;20929;-59
2022/12/25 10:06:06;;;;;;;5.75;4.15;;;9.70;99.90;;;;;;5072184;28;20460;-59
2022/12/25 10:08:46;;;;;;;8.63;4.53;;;9.70;99.90;;;;;;5072841;28;20472;-58
2022/12/25 10:11:28;;;;;;;8.02;4.05;;;9.80;99.90;;;;;;5072657;28;20466;-55
2022/12/25 10:14:08;;;;;;;9.57;4.60;;;9.70;99.90;;;;;;5072581;28;20445;-58
2022/12/25 10:16:45;;;;;;;9.43;4.50;;;9.70;99.90;;;;;;5071899;28;20914;-57
2022/12/25 10:19:26;;;;;;;8.02;4.07;;;9.80;99.90;;;;;;5072506;28;20419;-58
2022/12/25 10:21:58;;;;;;;7.83;4.37;;;9.90;99.90;;;;;;5072372;28;20434;-57
2022/12/25 10:24:33;;;;;;;7.30;4.35;;;9.70;99.90;;;;;;5072406;28;20546;-60
2022/12/25 10:27:02;;;;;;;8.75;4.50;;;9.80;99.90;;;;;;5063469;28;20966;-57
2022/12/25 10:29:31;;;;;;;7.43;4.20;;;9.70;99.90;;;;;;5057947;28;20496;-56
2022/12/25 10:31:58;;;;;;;7.95;3.90;;;9.80;99.90;;;;;;5052223;28;20458;-57
2022/12/25 10:34:26;;;;;;;6.95;4.28;;;9.80;99.90;;;;;;5052107;28;20467;-57
2022/12/25 10:36:55;;;;;;;7.30;4.05;;;9.80;99.90;;;;;;5051686;28;20470;-61
2022/12/25 10:39:24;;;;;;;8.02;4.07;;;9.80;99.90;;;;;;5051736;28;20659;-56
2022/12/25 10:42:09;;;;;;;7.57;3.92;;;10.00;99.90;;;;;;5051961;28;20468;-59
2022/12/25 10:44:36;;;;;;;8.17;4.03;;;9.90;99.90;;;;;;5052096;28;20543;-58
2022/12/25 10:47:04;;;;;;;6.05;3.58;;;10.00;99.90;;;;;;5051660;28;21009;-52
2022/12/25 10:49:34;;;;;;;8.52;5.10;;;10.00;99.90;;;;;;5050855;28;20459;-55
2022/12/25 10:52:04;;;;;;;6.18;4.18;;;9.80;99.90;;;;;;5051718;28;20461;-60
2022/12/25 10:54:33;;;;;;;5.83;3.50;;;10.00;99.90;;;;;;5051887;28;20458;-56
2022/12/25 10:57:02;;;;;;;5.25;3.40;;;10.00;99.90;;;;;;5059606;28;20427;-57
2022/12/25 10:59:30;;;;;;;6.10;3.22;;;9.90;99.90;;;;;;5065814;28;20522;-58
2022/12/25 11:02:05;;;;;;;6.18;3.17;;;10.00;99.90;;;;;;5071633;28;21097;-55
2022/12/25 11:04:35;;;;;;;4.82;2.65;;;10.20;99.90;;;;;;5071283;28;20431;-60
2022/12/25 11:07:07;;;;;;;3.72;2.58;;;10.20;99.90;;;;;;5071276;28;20456;-59
2022/12/25 11:09:34;;;;;;;4.45;2.25;;;10.30;99.90;;;;;;5071420;28;20513;-58
2022/12/25 11:12:01;;;;;;;4.47;2.85;;;10.30;99.90;;;;;;5071362;28;20415;-60
2022/12/25 11:14:29;;;;;;;4.55;3.05;;;10.20;99.90;;;;;;5071442;28;20474;-59
2022/12/25 11:17:06;;;;;;;5.22;2.63;;;10.20;99.90;;;;;;5071007;28;20471;-57
2022/12/25 11:19:33;;;;;;;4.07;2.30;;;10.20;99.90;;;;;;5071493;28;20472;-57
2022/12/25 11:22:03;;;;;;;4.82;2.60;;;10.20;99.90;;;;;;5071085;28;21047;-58
2022/12/25 11:24:33;;;;;;;3.80;2.28;;;10.20;99.90;;;;;;5071431;28;20452;-57
2022/12/25 11:27:04;;;;;;;3.83;2.60;;;10.20;99.90;;;;;;5062747;28;20471;-60
2022/12/25 11:29:37;;;;;;;4.70;2.63;;;10.10;99.90;;;;;;5056470;28;20977;-59
2022/12/25 11:32:11;;;;;;;3.35;2.30;;;10.20;99.90;;;;;;5051151;28;20413;-54
2022/12/25 11:34:44;;;;;;;3.80;2.30;;;10.10;99.90;;;;;;5051151;28;20466;-58
2022/12/25 11:37:16;;;;;;;4.43;2.10;;;10.10;99.90;;;;;;5050730;28;20425;-60
2022/12/25 11:39:43;;;;;;;3.40;2.27;;;10.20;99.90;;;;;;5051102;28;20414;-60
2022/12/25 11:42:15;;;;;;;3.67;2.47;;;10.10;99.90;;;;;;5051038;28;20467;-57
2022/12/25 11:44:46;;;;;;;4.43;2.42;;;10.20;99.90;;;;;;5051158;28;20540;-59
2022/12/25 11:47:21;;;;;;;5.90;4.17;;;10.30;99.90;;;;;;5050605;28;20937;-56
2022/12/25 11:49:52;;;;;;;7.45;4.20;;;10.20;99.90;;;;;;5050875;28;20486;-57
2022/12/25 11:52:23;;;;;;;9.00;5.65;;;10.30;99.90;;;;;;5050975;28;20457;-57
2022/12/25 11:54:57;;;;;;;3.43;2.80;;;10.30;99.90;;;;;;5050915;28;20462;-55
2022/12/25 11:57:27;;;;;;;5.25;3.30;;;10.20;99.90;;;;;;5059144;28;20497;-51
2022/12/25 11:59:57;;;;;;;5.65;3.05;;;10.40;99.90;;;;;;5069387;28;20535;-54
2022/12/25 12:02:30;;;;;;;5.00;2.95;;;10.30;99.90;;;;;;5070761;28;20871;-54
2022/12/25 12:05:07;;;;;;;4.55;3.10;;;10.20;99.90;;;;;;5070579;28;20462;-57
2022/12/25 12:07:37;;;;;;;4.57;3.25;;;10.10;99.90;;;;;;5070584;28;20874;-52
2022/12/25 12:10:14;;;;;;;3.70;2.55;;;10.10;99.90;;;;;;5070758;28;20467;-52
2022/12/25 12:12:54;;;;;;;3.25;2.42;;;10.20;99.90;;;;;;5070964;28;20415;-51
2022/12/25 12:15:27;;;;;;;4.15;2.50;;;10.10;99.90;;;;;;5070455;28;20422;-56
2022/12/25 12:17:55;;;;;;;4.83;2.60;;;10.20;99.90;;;;;;5071149;28;20590;-54
2022/12/25 12:20:30;;;;;;;3.00;2.25;;;10.20;99.90;;;;;;5070902;28;20469;-60
2022/12/25 12:22:59;;;;;;;3.55;2.40;;;10.10;99.90;;;;;;5070686;28;20419;-57
2022/12/25 12:25:27;;;;;;;3.85;2.35;;;10.00;99.90;;;;;;5070455;28;20813;-54
2022/12/25 12:27:57;;;;;;;3.35;2.30;;;10.20;99.90;;;;;;5060751;28;20411;-54
2022/12/25 12:30:26;;;;;;;3.05;2.50;;;10.20;99.90;;;;;;5050646;28;20413;-56
2022/12/25 12:32:57;;;;;;;4.22;2.20;;;10.20;99.90;;;;;;5050664;28;20554;-56
2022/12/25 12:35:27;;;;;;;3.20;2.30;;;10.10;99.90;;;;;;5050375;28;20417;-57
2022/12/25 12:37:57;;;;;;;3.42;2.50;;;10.20;99.90;;;;;;5050048;28;20801;-58
2022/12/25 12:40:32;;;;;;;3.78;2.50;;;10.30;99.90;;;;;;5050542;28;20416;-59
2022/12/25 12:43:01;;;;;;;2.80;2.07;;;10.20;99.90;;;;;;5050371;28;20574;-57
2022/12/25 12:45:30;;;;;;;3.63;2.40;;;10.20;99.90;;;;;;5050491;28;20413;-55
2022/12/25 12:47:57;;;;;;;6.18;2.58;;;10.20;99.90;;;;;;5049982;28;20458;-54
2022/12/25 12:50:32;;;;;;;4.70;2.77;;;10.10;99.90;;;;;;5050270;28;20471;-58
2022/12/25 12:53:00;;;;;;;3.58;2.70;;;10.20;99.90;;;;;;5050180;28;20448;-56
2022/12/25 12:55:32;;;;;;;3.97;2.35;;;10.30;99.90;;;;;;5050353;28;20457;-56
2022/12/25 12:57:59;;;;;;;3.72;2.45;;;10.40;99.90;;;;;;5059801;28;20437;-56
2022/12/25 13:00:30;;;;;;;4.82;3.25;;;10.30;99.90;;;;;;5070219;28;20494;-55
2022/12/25 13:03:20;;;;;;;5.30;3.17;;;10.30;99.90;;;;;;5070177;28;20783;-55
2022/12/25 13:05:53;;;;;;;3.92;3.10;;;10.30;99.90;;;;;;5066685;28;20946;-57
2022/12/25 13:08:34;;;;;;;3.55;2.78;;;10.50;99.90;;;;;;5070128;28;20452;-55
2022/12/25 13:11:10;;;;;;;4.38;2.95;;;10.50;99.90;;;;;;5070162;28;20958;-56
2022/12/25 13:13:40;;;;;;;4.80;2.88;;;10.60;99.90;;;;;;5072092;28;20995;-58
2022/12/25 13:16:16;;;;;;;3.90;2.73;;;10.60;99.90;;;;;;5073686;28;20456;-56
2022/12/25 13:18:43;;;;;;;3.85;2.83;;;10.70;99.90;;;;;;5073481;28;20483;-59
2022/12/25 13:21:17;;;;;;;5.80;4.28;;;10.80;99.90;;;;;;5073544;28;20824;-59
2022/12/25 13:23:44;;;;;;;5.35;4.07;;;10.60;99.90;;;;;;5073514;28;20999;-56
2022/12/25 13:26:15;;;;;;;5.28;3.97;;;10.40;99.90;;;;;;5069670;28;20424;-53
2022/12/25 13:28:42;;;;;;;5.50;4.25;;;10.40;99.90;;;;;;5061531;28;20502;-56
2022/12/25 13:31:17;;;;;;;6.63;4.60;;;10.30;99.90;;;;;;5053342;28;20899;-58
2022/12/25 13:33:46;;;;;;;7.03;4.60;;;10.20;99.90;;;;;;5053484;28;20458;-54
2022/12/25 13:36:13;;;;;;;5.93;4.60;;;10.30;99.90;;;;;;5052905;28;20420;-55
2022/12/25 13:38:44;;;;;;;7.72;4.65;;;10.30;99.90;;;;;;5053276;28;20469;-59
2022/12/25 13:44:02;;;;;;;10.57;5.20;;;10.20;99.90;;;;;;5053187;28;20441;-57
2022/12/25 13:46:29;;;;;;;9.67;5.50;;;10.30;99.90;;;;;;5052933;28;20421;-55
2022/12/25 13:48:58;;;;;;;10.35;6.35;;;10.30;99.90;;;;;;5053101;28;20935;-58
2022/12/25 13:51:26;;;;;;;9.98;6.40;;;10.20;99.90;;;;;;5052804;28;20437;-60
2022/12/25 13:54:03;;;;;;;10.80;6.60;;;10.30;99.90;;;;;;5053298;28;20471;-55
2022/12/25 13:56:32;;;;;;;14.03;8.50;;;10.20;99.90;;;;;;5058909;28;20563;-58
2022/12/25 13:59:15;;;;;;;12.43;8.05;;;10.30;99.90;;;;;;5064477;28;20427;-54
2022/12/25 14:01:42;;;;;;;24.40;16.40;;;10.20;99.90;;;;;;5072622;28;20459;-58
2022/12/25 14:04:14;;;;;;;10.63;7.40;;;10.30;99.90;;;;;;5072998;28;21009;-57
2022/12/25 14:06:41;;;;;;;9.93;7.05;;;10.20;99.90;;;;;;5072458;28;20925;-56
2022/12/25 14:09:09;;;;;;;12.52;7.30;;;10.20;99.90;;;;;;5072636;28;20412;-58
2022/12/25 14:11:39;;;;;;;12.07;7.57;;;10.30;99.90;;;;;;5072852;28;20411;-60
2022/12/25 14:14:20;;;;;;;13.93;7.40;;;10.30;99.90;;;;;;5072502;28;20958;-57
2022/12/25 14:16:49;;;;;;;10.82;6.97;;;10.30;99.90;;;;;;5072587;28;20494;-57
2022/12/25 14:19:25;;;;;;;10.70;6.82;;;10.50;99.90;;;;;;5072655;28;20416;-59
2022/12/25 14:21:56;;;;;;;11.40;6.57;;;10.40;99.90;;;;;;5072819;28;20502;-54
2022/12/25 14:24:24;;;;;;;11.38;7.05;;;10.50;99.90;;;;;;5072276;28;20460;-60
2022/12/25 14:26:59;;;;;;;10.70;7.45;;;10.50;99.90;;;;;;5064018;28;20454;-57
2022/12/25 14:29:27;;;;;;;13.90;7.07;;;10.50;99.90;;;;;;5058533;28;20481;-58
2022/12/25 14:31:57;;;;;;;11.25;7.63;;;10.60;99.90;;;;;;5052333;28;20420;-55
2022/12/25 14:34:33;;;;;;;10.73;7.13;;;10.60;99.90;;;;;;5052200;28;20529;-56
2022/12/25 14:37:00;;;;;;;10.90;7.07;;;10.60;99.90;;;;;;5051804;28;20900;-58
2022/12/25 14:39:32;;;;;;;11.17;7.10;;;10.60;99.90;;;;;;5052261;28;20432;-59
2022/12/25 14:42:01;;;;;;;10.60;7.65;;;10.70;99.90;;;;;;5052339;28;20473;-55
2022/12/25 14:44:33;;;;;;;10.95;7.40;;;10.70;99.90;;;;;;5051898;28;20473;-56
2022/12/25 14:47:06;;;;;;;9.52;7.35;;;10.70;99.90;;;;;;5051283;28;20481;-54